sensor_id;sensor_type;location;lat;lon;timestamp;pressure;altitude;pressure_sealevel;temperature;humidity
30744;BME280;17486;46.738;7.622;2022-10-16T00:01:46;95271.47;;;17.49;60.82
30744;BME280;17486;46.738;7.622;2022-10-16T00:04:12;95272.53;;;17.46;60.39
30744;BME280;17486;46.738;7.622;2022-10-16T00:06:38;95224.38;;;17.23;60.40
30744;BME280;17486;46.738;7.622;2022-10-16T00:09:03;95243.00;;;17.31;60.60
30744;BME280;17486;46.738;7.622;2022-10-16T00:11:33;95215.16;;;17.17;60.45
30744;BME280;17486;46.738;7.622;2022-10-16T00:14:05;95254.34;;;17.32;60.63
30744;BME280;17486;46.738;7.622;2022-10-16T00:16:31;95236.78;;;17.10;60.72
30744;BME280;17486;46.738;7.622;2022-10-16T00:18:56;95258.06;;;17.18;60.65
30744;BME280;17486;46.738;7.622;2022-10-16T00:21:24;95246.81;;;17.04;60.95
30744;BME280;17486;46.738;7.622;2022-10-16T00:23:52;95230.88;;;16.95;60.83
30744;BME280;17486;46.738;7.622;2022-10-16T00:26:18;95225.47;;;16.85;60.92
30744;BME280;17486;46.738;7.622;2022-10-16T00:28:49;95234.28;;;16.84;61.13
30744;BME280;17486;46.738;7.622;2022-10-16T00:31:16;95233.06;;;16.77;61.18
30744;BME280;17486;46.738;7.622;2022-10-16T00:33:42;95263.59;;;16.90;60.95
30744;BME280;17486;46.738;7.622;2022-10-16T00:36:12;95238.00;;;16.57;61.46
30744;BME280;17486;46.738;7.622;2022-10-16T00:38:38;95233.31;;;16.49;61.25
30744;BME280;17486;46.738;7.622;2022-10-16T00:41:05;95236.59;;;16.40;61.79
30744;BME280;17486;46.738;7.622;2022-10-16T00:43:51;95229.28;;;16.32;61.85
30744;BME280;17486;46.738;7.622;2022-10-16T00:46:20;95272.69;;;16.49;62.22
30744;BME280;17486;46.738;7.622;2022-10-16T00:49:08;95272.28;;;16.42;61.99
30744;BME280;17486;46.738;7.622;2022-10-16T00:51:37;95238.88;;;16.20;62.15
30744;BME280;17486;46.738;7.622;2022-10-16T00:54:04;95241.44;;;16.22;62.48
30744;BME280;17486;46.738;7.622;2022-10-16T00:56:32;95284.47;;;16.44;62.34
30744;BME280;17486;46.738;7.622;2022-10-16T00:58:59;95240.56;;;16.21;62.21
30744;BME280;17486;46.738;7.622;2022-10-16T01:01:26;95282.59;;;16.46;62.27
30744;BME280;17486;46.738;7.622;2022-10-16T01:03:52;95233.56;;;16.22;62.01
30744;BME280;17486;46.738;7.622;2022-10-16T01:09:22;95278.69;;;16.51;62.14
30744;BME280;17486;46.738;7.622;2022-10-16T01:11:57;95252.19;;;16.30;62.21
30744;BME280;17486;46.738;7.622;2022-10-16T01:14:33;95262.69;;;16.30;61.94
30744;BME280;17486;46.738;7.622;2022-10-16T01:17:07;95293.81;;;16.48;62.32
30744;BME280;17486;46.738;7.622;2022-10-16T01:20:31;95303.59;;;16.46;61.58
30744;BME280;17486;46.738;7.622;2022-10-16T01:22:39;95244.50;;;16.16;62.16
30744;BME280;17486;46.738;7.622;2022-10-16T01:25:15;95256.44;;;16.20;61.49
30744;BME280;17486;46.738;7.622;2022-10-16T01:27:45;95289.06;;;16.29;61.77
30744;BME280;17486;46.738;7.622;2022-10-16T01:30:23;95256.91;;;16.01;61.64
30744;BME280;17486;46.738;7.622;2022-10-16T01:33:19;95302.34;;;16.14;61.96
30744;BME280;17486;46.738;7.622;2022-10-16T01:35:53;95248.97;;;15.77;61.74
30744;BME280;17486;46.738;7.622;2022-10-16T01:38:31;95250.13;;;15.72;62.01
30744;BME280;17486;46.738;7.622;2022-10-16T01:41:06;95264.69;;;15.77;62.21
30744;BME280;17486;46.738;7.622;2022-10-16T01:43:36;95304.75;;;15.91;61.91
30744;BME280;17486;46.738;7.622;2022-10-16T01:46:05;95284.34;;;15.84;62.61
30744;BME280;17486;46.738;7.622;2022-10-16T01:48:31;95300.09;;;15.84;61.95
30744;BME280;17486;46.738;7.622;2022-10-16T01:51:04;95293.28;;;15.81;62.12
30744;BME280;17486;46.738;7.622;2022-10-16T01:53:31;95264.06;;;15.60;62.19
30744;BME280;17486;46.738;7.622;2022-10-16T01:55:58;95294.28;;;15.79;61.73
30744;BME280;17486;46.738;7.622;2022-10-16T01:58:25;95262.63;;;15.56;61.91
30744;BME280;17486;46.738;7.622;2022-10-16T02:00:54;95299.53;;;15.79;61.09
30744;BME280;17486;46.738;7.622;2022-10-16T02:03:20;95255.59;;;15.56;61.04
30744;BME280;17486;46.738;7.622;2022-10-16T02:05:53;95306.44;;;15.80;60.83
30744;BME280;17486;46.738;7.622;2022-10-16T02:08:21;95282.34;;;15.62;61.12
30744;BME280;17486;46.738;7.622;2022-10-16T02:10:48;95278.78;;;15.50;61.19
30744;BME280;17486;46.738;7.622;2022-10-16T02:16:00;95286.44;;;15.53;61.59
30744;BME280;17486;46.738;7.622;2022-10-16T02:18:26;95286.44;;;15.53;60.98
30744;BME280;17486;46.738;7.622;2022-10-16T02:21:00;95273.53;;;15.50;61.04
30744;BME280;17486;46.738;7.622;2022-10-16T02:23:34;95286.22;;;15.56;60.79
30744;BME280;17486;46.738;7.622;2022-10-16T02:26:03;95280.97;;;15.56;60.60
30744;BME280;17486;46.738;7.622;2022-10-16T02:28:38;95247.63;;;15.32;60.67
30744;BME280;17486;46.738;7.622;2022-10-16T02:31:09;95289.56;;;15.58;60.11
30744;BME280;17486;46.738;7.622;2022-10-16T02:33:37;95286.09;;;15.57;60.14
30744;BME280;17486;46.738;7.622;2022-10-16T02:36:04;95289.06;;;15.53;60.37
30744;BME280;17486;46.738;7.622;2022-10-16T02:38:30;95289.47;;;15.47;60.55
30744;BME280;17486;46.738;7.622;2022-10-16T02:40:56;95314.75;;;15.61;60.55
30744;BME280;17486;46.738;7.622;2022-10-16T02:43:21;95299.13;;;15.59;60.47
30744;BME280;17486;46.738;7.622;2022-10-16T02:45:46;95262.00;;;15.27;60.71
30744;BME280;17486;46.738;7.622;2022-10-16T02:48:12;95298.91;;;15.36;61.17
30744;BME280;17486;46.738;7.622;2022-10-16T02:50:37;95273.81;;;15.06;61.38
30744;BME280;17486;46.738;7.622;2022-10-16T02:53:03;95273.09;;;15.04;61.41
30744;BME280;17486;46.738;7.622;2022-10-16T02:55:28;95300.66;;;15.23;62.01
30744;BME280;17486;46.738;7.622;2022-10-16T02:57:54;95304.97;;;15.24;61.60
30744;BME280;17486;46.738;7.622;2022-10-16T03:00:20;95317.84;;;15.27;61.94
30744;BME280;17486;46.738;7.622;2022-10-16T03:02:45;95293.63;;;15.23;61.99
30744;BME280;17486;46.738;7.622;2022-10-16T03:05:11;95304.13;;;15.23;61.75
30744;BME280;17486;46.738;7.622;2022-10-16T03:07:37;95303.50;;;15.20;61.90
30744;BME280;17486;46.738;7.622;2022-10-16T03:10:03;95312.94;;;15.22;62.20
30744;BME280;17486;46.738;7.622;2022-10-16T03:12:28;95286.50;;;15.13;61.99
30744;BME280;17486;46.738;7.622;2022-10-16T03:14:55;95311.25;;;15.21;62.16
30744;BME280;17486;46.738;7.622;2022-10-16T03:17:22;95266.28;;;15.02;61.80
30744;BME280;17486;46.738;7.622;2022-10-16T03:19:47;95301.06;;;15.17;62.05
30744;BME280;17486;46.738;7.622;2022-10-16T03:22:13;95264.28;;;14.92;62.32
30744;BME280;17486;46.738;7.622;2022-10-16T03:24:38;95280.19;;;15.02;62.18
30744;BME280;17486;46.738;7.622;2022-10-16T03:27:03;95287.94;;;15.04;62.06
30744;BME280;17486;46.738;7.622;2022-10-16T03:29:29;95332.88;;;15.25;62.02
30744;BME280;17486;46.738;7.622;2022-10-16T03:31:56;95326.88;;;15.23;62.26
30744;BME280;17486;46.738;7.622;2022-10-16T03:34:21;95284.63;;;15.02;62.08
30744;BME280;17486;46.738;7.622;2022-10-16T03:36:47;95308.53;;;15.23;61.87
30744;BME280;17486;46.738;7.622;2022-10-16T03:39:12;95331.50;;;15.32;61.87
30744;BME280;17486;46.738;7.622;2022-10-16T03:41:38;95330.78;;;15.30;62.02
30744;BME280;17486;46.738;7.622;2022-10-16T03:44:03;95291.03;;;15.11;62.16
30744;BME280;17486;46.738;7.622;2022-10-16T03:46:28;95320.81;;;15.35;62.34
30744;BME280;17486;46.738;7.622;2022-10-16T03:48:54;95319.97;;;15.35;61.94
30744;BME280;17486;46.738;7.622;2022-10-16T03:51:20;95299.31;;;15.17;62.25
30744;BME280;17486;46.738;7.622;2022-10-16T03:53:46;95329.81;;;15.31;62.57
30744;BME280;17486;46.738;7.622;2022-10-16T03:56:11;95322.81;;;15.32;62.36
30744;BME280;17486;46.738;7.622;2022-10-16T03:58:36;95318.50;;;15.31;62.28
30744;BME280;17486;46.738;7.622;2022-10-16T04:01:02;95307.78;;;15.21;62.48
30744;BME280;17486;46.738;7.622;2022-10-16T04:03:27;95338.09;;;15.25;62.73
30744;BME280;17486;46.738;7.622;2022-10-16T04:05:53;95329.28;;;15.26;62.62
30744;BME280;17486;46.738;7.622;2022-10-16T04:08:19;95339.97;;;15.23;62.69
30744;BME280;17486;46.738;7.622;2022-10-16T04:10:44;95334.19;;;15.18;62.65
30744;BME280;17486;46.738;7.622;2022-10-16T04:13:10;95324.56;;;15.05;62.75
30744;BME280;17486;46.738;7.622;2022-10-16T04:15:35;95331.66;;;15.03;63.42
30744;BME280;17486;46.738;7.622;2022-10-16T04:18:01;95308.25;;;14.87;63.44
30744;BME280;17486;46.738;7.622;2022-10-16T04:20:26;95340.34;;;15.04;63.59
30744;BME280;17486;46.738;7.622;2022-10-16T04:22:51;95319.47;;;14.89;63.68
30744;BME280;17486;46.738;7.622;2022-10-16T04:25:17;95307.72;;;14.82;63.79
30744;BME280;17486;46.738;7.622;2022-10-16T04:27:42;95347.91;;;15.08;63.32
30744;BME280;17486;46.738;7.622;2022-10-16T04:30:08;95302.19;;;14.87;63.34
30744;BME280;17486;46.738;7.622;2022-10-16T04:32:33;95346.75;;;15.13;63.12
30744;BME280;17486;46.738;7.622;2022-10-16T04:34:59;95359.84;;;15.13;63.48
30744;BME280;17486;46.738;7.622;2022-10-16T04:37:25;95356.31;;;15.14;63.09
30744;BME280;17486;46.738;7.622;2022-10-16T04:39:52;95353.69;;;15.14;63.21
30744;BME280;17486;46.738;7.622;2022-10-16T04:42:17;95370.16;;;15.16;63.36
30744;BME280;17486;46.738;7.622;2022-10-16T04:44:43;95351.59;;;15.19;63.23
30744;BME280;17486;46.738;7.622;2022-10-16T04:47:08;95353.69;;;15.14;63.12
30744;BME280;17486;46.738;7.622;2022-10-16T04:49:33;95348.31;;;15.02;63.52
30744;BME280;17486;46.738;7.622;2022-10-16T04:51:59;95351.69;;;15.04;63.76
30744;BME280;17486;46.738;7.622;2022-10-16T04:54:24;95348.13;;;15.05;63.58
30744;BME280;17486;46.738;7.622;2022-10-16T04:56:50;95352.31;;;15.08;63.38
30744;BME280;17486;46.738;7.622;2022-10-16T04:59:18;95306.91;;;14.82;63.74
30744;BME280;17486;46.738;7.622;2022-10-16T05:01:43;95312.31;;;14.79;63.75
30744;BME280;17486;46.738;7.622;2022-10-16T05:04:09;95359.81;;;15.00;63.48
30744;BME280;17486;46.738;7.622;2022-10-16T05:06:35;95312.41;;;14.77;63.84
30744;BME280;17486;46.738;7.622;2022-10-16T05:09:00;95358.78;;;15.02;63.75
30744;BME280;17486;46.738;7.622;2022-10-16T05:11:26;95345.16;;;14.97;63.95
30744;BME280;17486;46.738;7.622;2022-10-16T05:13:51;95360.47;;;15.03;63.94
30744;BME280;17486;46.738;7.622;2022-10-16T05:16:17;95348.50;;;14.99;63.79
30744;BME280;17486;46.738;7.622;2022-10-16T05:18:42;95353.44;;;15.04;63.57
30744;BME280;17486;46.738;7.622;2022-10-16T05:21:08;95335.78;;;14.80;63.80
30744;BME280;17486;46.738;7.622;2022-10-16T05:23:33;95317.13;;;14.72;64.09
30744;BME280;17486;46.738;7.622;2022-10-16T05:25:59;95328.97;;;14.78;63.62
30744;BME280;17486;46.738;7.622;2022-10-16T05:28:26;95362.38;;;15.01;63.50
30744;BME280;17486;46.738;7.622;2022-10-16T05:30:51;95327.47;;;14.73;63.79
30744;BME280;17486;46.738;7.622;2022-10-16T05:33:19;95361.81;;;14.96;63.77
30744;BME280;17486;46.738;7.622;2022-10-16T05:35:45;95367.25;;;14.93;63.97
30744;BME280;17486;46.738;7.622;2022-10-16T05:38:11;95364.84;;;14.90;64.06
30744;BME280;17486;46.738;7.622;2022-10-16T05:40:37;95314.22;;;14.62;64.36
30744;BME280;17486;46.738;7.622;2022-10-16T05:43:02;95369.63;;;14.83;64.31
30744;BME280;17486;46.738;7.622;2022-10-16T05:45:27;95358.50;;;14.80;64.45
30744;BME280;17486;46.738;7.622;2022-10-16T05:47:53;95358.72;;;14.77;64.39
30744;BME280;17486;46.738;7.622;2022-10-16T05:50:18;95373.56;;;14.76;64.36
30744;BME280;17486;46.738;7.622;2022-10-16T05:52:44;95337.78;;;14.62;64.43
30744;BME280;17486;46.738;7.622;2022-10-16T05:55:09;95315.44;;;14.56;64.59
30744;BME280;17486;46.738;7.622;2022-10-16T05:57:34;95363.34;;;14.86;64.20
30744;BME280;17486;46.738;7.622;2022-10-16T06:00:00;95373.94;;;14.84;64.58
30744;BME280;17486;46.738;7.622;2022-10-16T06:02:25;95370.19;;;14.88;64.69
30744;BME280;17486;46.738;7.622;2022-10-16T06:04:51;95364.06;;;14.88;64.21
30744;BME280;17486;46.738;7.622;2022-10-16T06:07:18;95355.34;;;14.74;64.45
30744;BME280;17486;46.738;7.622;2022-10-16T06:09:44;95329.03;;;14.49;64.57
30744;BME280;17486;46.738;7.622;2022-10-16T06:12:12;95338.94;;;14.43;65.08
30744;BME280;17486;46.738;7.622;2022-10-16T06:14:38;95339.69;;;14.46;64.51
30744;BME280;17486;46.738;7.622;2022-10-16T06:17:03;95343.69;;;14.51;65.00
30744;BME280;17486;46.738;7.622;2022-10-16T06:19:28;95371.81;;;14.77;64.84
30744;BME280;17486;46.738;7.622;2022-10-16T06:21:54;95387.22;;;14.81;64.97
30744;BME280;17486;46.738;7.622;2022-10-16T06:24:19;95341.44;;;14.59;65.04
30744;BME280;17486;46.738;7.622;2022-10-16T06:26:45;95345.56;;;14.64;64.71
30744;BME280;17486;46.738;7.622;2022-10-16T06:29:10;95357.72;;;14.65;64.65
30744;BME280;17486;46.738;7.622;2022-10-16T06:31:35;95360.97;;;14.68;64.65
30744;BME280;17486;46.738;7.622;2022-10-16T06:34:01;95355.84;;;14.67;64.63
30744;BME280;17486;46.738;7.622;2022-10-16T06:36:27;95400.75;;;14.88;64.66
30744;BME280;17486;46.738;7.622;2022-10-16T06:38:53;95396.38;;;14.88;64.46
30744;BME280;17486;46.738;7.622;2022-10-16T06:41:20;95375.47;;;14.74;64.13
30744;BME280;17486;46.738;7.622;2022-10-16T06:43:46;95390.97;;;14.77;64.44
30744;BME280;17486;46.738;7.622;2022-10-16T06:46:14;95404.59;;;14.82;64.62
30744;BME280;17486;46.738;7.622;2022-10-16T06:48:40;95410.88;;;14.80;64.65
30744;BME280;17486;46.738;7.622;2022-10-16T06:51:09;95389.69;;;14.70;64.91
30744;BME280;17486;46.738;7.622;2022-10-16T06:53:40;95381.75;;;14.57;64.94
30744;BME280;17486;46.738;7.622;2022-10-16T06:56:12;95434.66;;;14.77;65.24
30744;BME280;17486;46.738;7.622;2022-10-16T06:58:38;95386.22;;;14.55;64.79
30744;BME280;17486;46.738;7.622;2022-10-16T07:01:05;95396.31;;;14.61;64.80
30744;BME280;17486;46.738;7.622;2022-10-16T07:03:31;95410.31;;;14.74;64.72
30744;BME280;17486;46.738;7.622;2022-10-16T07:05:56;95427.31;;;14.96;64.50
30744;BME280;17486;46.738;7.622;2022-10-16T07:08:22;95415.31;;;14.92;64.73
30744;BME280;17486;46.738;7.622;2022-10-16T07:10:47;95392.44;;;14.81;64.50
30744;BME280;17486;46.738;7.622;2022-10-16T07:13:13;95435.94;;;15.11;64.01
30744;BME280;17486;46.738;7.622;2022-10-16T07:15:40;95405.38;;;14.97;64.24
30744;BME280;17486;46.738;7.622;2022-10-16T07:18:05;95447.50;;;15.21;63.84
30744;BME280;17486;46.738;7.622;2022-10-16T07:20:31;95444.66;;;15.24;63.89
30744;BME280;17486;46.738;7.622;2022-10-16T07:22:56;95399.75;;;15.03;63.42
30744;BME280;17486;46.738;7.622;2022-10-16T07:25:21;95414.34;;;15.07;63.40
30744;BME280;17486;46.738;7.622;2022-10-16T07:27:47;95440.47;;;15.22;63.36
30744;BME280;17486;46.738;7.622;2022-10-16T07:30:12;95459.06;;;15.32;63.70
30744;BME280;17486;46.738;7.622;2022-10-16T07:32:38;95410.56;;;15.12;63.54
30744;BME280;17486;46.738;7.622;2022-10-16T07:35:04;95456.56;;;15.43;63.82
30744;BME280;17486;46.738;7.622;2022-10-16T07:37:29;95457.59;;;15.40;62.76
30744;BME280;17486;46.738;7.622;2022-10-16T07:39:54;95458.06;;;15.47;63.04
30744;BME280;17486;46.738;7.622;2022-10-16T07:42:20;95464.78;;;15.51;62.32
30744;BME280;17486;46.738;7.622;2022-10-16T07:44:45;95463.00;;;15.52;62.63
30744;BME280;17486;46.738;7.622;2022-10-16T07:47:11;95468.78;;;15.57;62.73
30744;BME280;17486;46.738;7.622;2022-10-16T07:49:36;95476.16;;;15.65;62.75
30744;BME280;17486;46.738;7.622;2022-10-16T07:52:02;95451.78;;;15.50;62.54
30744;BME280;17486;46.738;7.622;2022-10-16T07:54:27;95444.88;;;15.49;62.70
30744;BME280;17486;46.738;7.622;2022-10-16T07:56:52;95462.59;;;15.58;62.55
30744;BME280;17486;46.738;7.622;2022-10-16T07:59:18;95498.38;;;15.72;62.62
30744;BME280;17486;46.738;7.622;2022-10-16T08:01:43;95504.09;;;15.79;62.94
30744;BME280;17486;46.738;7.622;2022-10-16T08:04:09;95508.22;;;15.83;62.76
30744;BME280;17486;46.738;7.622;2022-10-16T08:06:37;95493.19;;;15.85;62.45
30744;BME280;17486;46.738;7.622;2022-10-16T08:09:03;95500.97;;;15.86;62.29
30744;BME280;17486;46.738;7.622;2022-10-16T08:11:29;95512.84;;;15.92;62.61
30744;BME280;17486;46.738;7.622;2022-10-16T08:13:54;95466.31;;;15.68;62.29
30744;BME280;17486;46.738;7.622;2022-10-16T08:16:20;95529.13;;;15.97;62.21
30744;BME280;17486;46.738;7.622;2022-10-16T08:18:46;95498.69;;;15.95;62.53
30744;BME280;17486;46.738;7.622;2022-10-16T08:21:15;95521.03;;;16.00;62.42
30744;BME280;17486;46.738;7.622;2022-10-16T08:23:41;95511.91;;;16.06;62.40
30744;BME280;17486;46.738;7.622;2022-10-16T08:26:07;95536.47;;;16.18;62.33
30744;BME280;17486;46.738;7.622;2022-10-16T08:28:33;95472.88;;;16.01;62.16
30744;BME280;17486;46.738;7.622;2022-10-16T08:31:10;95508.13;;;16.23;61.68
30744;BME280;17486;46.738;7.622;2022-10-16T08:33:37;95495.97;;;16.22;61.82
30744;BME280;17486;46.738;7.622;2022-10-16T08:36:03;95519.16;;;16.41;61.76
30744;BME280;17486;46.738;7.622;2022-10-16T08:38:29;95491.56;;;16.22;61.74
30744;BME280;17486;46.738;7.622;2022-10-16T08:41:01;95486.72;;;16.29;61.78
30744;BME280;17486;46.738;7.622;2022-10-16T08:43:34;95529.38;;;16.58;61.24
30744;BME280;17486;46.738;7.622;2022-10-16T08:48:43;95529.69;;;16.67;61.37
30744;BME280;17486;46.738;7.622;2022-10-16T08:51:14;95527.69;;;16.70;61.21
30744;BME280;17486;46.738;7.622;2022-10-16T08:53:49;95494.38;;;16.58;61.33
30744;BME280;17486;46.738;7.622;2022-10-16T08:56:14;95496.47;;;16.66;61.40
30744;BME280;17486;46.738;7.622;2022-10-16T08:58:40;95493.50;;;16.83;61.54
30744;BME280;17486;46.738;7.622;2022-10-16T09:01:12;95536.78;;;17.16;61.14
30744;BME280;17486;46.738;7.622;2022-10-16T09:07:04;95523.53;;;17.66;61.04
30744;BME280;17486;46.738;7.622;2022-10-16T09:17:44;95514.72;;;18.50;58.91
30744;BME280;17486;46.738;7.622;2022-10-16T09:22:40;95512.47;;;18.91;57.18
30744;BME280;17486;46.738;7.622;2022-10-16T09:25:15;95512.69;;;19.10;56.68
30744;BME280;17486;46.738;7.622;2022-10-16T09:27:42;95514.06;;;19.37;55.93
30744;BME280;17486;46.738;7.622;2022-10-16T09:30:20;95520.03;;;19.50;54.58
30744;BME280;17486;46.738;7.622;2022-10-16T09:32:49;95517.00;;;19.66;54.46
30744;BME280;17486;46.738;7.622;2022-10-16T09:35:21;95517.06;;;19.76;54.06
30744;BME280;17486;46.738;7.622;2022-10-16T09:37:50;95539.81;;;19.88;53.25
30744;BME280;17486;46.738;7.622;2022-10-16T09:40:27;95513.31;;;19.90;52.70
30744;BME280;17486;46.738;7.622;2022-10-16T09:45:41;95510.94;;;19.87;52.36
30744;BME280;17486;46.738;7.622;2022-10-16T09:48:11;95511.56;;;20.00;52.57
30744;BME280;17486;46.738;7.622;2022-10-16T09:50:37;95489.31;;;19.93;52.57
30744;BME280;17486;46.738;7.622;2022-10-16T09:53:14;95504.84;;;20.08;52.80
30744;BME280;17486;46.738;7.622;2022-10-16T09:55:53;95487.72;;;20.02;52.13
30744;BME280;17486;46.738;7.622;2022-10-16T09:58:22;95485.56;;;20.17;52.46
30744;BME280;17486;46.738;7.622;2022-10-16T10:00:53;95525.28;;;20.58;52.52
30744;BME280;17486;46.738;7.622;2022-10-16T10:03:39;95517.63;;;20.76;51.76
30744;BME280;17486;46.738;7.622;2022-10-16T10:06:28;95516.03;;;20.94;50.68
30744;BME280;17486;46.738;7.622;2022-10-16T10:08:55;95473.16;;;20.91;50.77
30744;BME280;17486;46.738;7.622;2022-10-16T10:11:51;95502.06;;;21.23;50.42
30744;BME280;17486;46.738;7.622;2022-10-16T10:14:18;95516.72;;;21.47;50.07
30744;BME280;17486;46.738;7.622;2022-10-16T10:16:45;95499.22;;;21.65;49.54
30744;BME280;17486;46.738;7.622;2022-10-16T10:19:22;95464.97;;;21.54;47.72
30744;BME280;17486;46.738;7.622;2022-10-16T10:21:48;95509.16;;;21.83;47.02
30744;BME280;17486;46.738;7.622;2022-10-16T10:24:16;95469.69;;;21.70;47.32
30744;BME280;17486;46.738;7.622;2022-10-16T10:27:05;95487.13;;;21.92;46.83
30744;BME280;17486;46.738;7.622;2022-10-16T10:30:01;95498.66;;;22.11;46.97
30744;BME280;17486;46.738;7.622;2022-10-16T10:33:11;95495.88;;;22.12;46.49
30744;BME280;17486;46.738;7.622;2022-10-16T10:35:52;95509.94;;;22.23;47.20
30744;BME280;17486;46.738;7.622;2022-10-16T10:38:40;95510.25;;;22.39;47.13
30744;BME280;17486;46.738;7.622;2022-10-16T10:46:40;95505.91;;;23.23;45.88
30744;BME280;17486;46.738;7.622;2022-10-16T10:54:58;95465.81;;;23.44;44.07
30744;BME280;17486;46.738;7.622;2022-10-16T11:02:37;95500.16;;;24.10;43.43
30744;BME280;17486;46.738;7.622;2022-10-16T11:05:49;95505.59;;;24.26;43.74
30744;BME280;17486;46.738;7.622;2022-10-16T11:11:24;95501.13;;;24.53;42.43
30744;BME280;17486;46.738;7.622;2022-10-16T11:14:18;95492.06;;;24.64;41.39
30744;BME280;17486;46.738;7.622;2022-10-16T11:16:52;95495.97;;;24.78;40.57
30744;BME280;17486;46.738;7.622;2022-10-16T11:27:09;95501.72;;;25.34;40.66
30744;BME280;17486;46.738;7.622;2022-10-16T11:29:47;95498.09;;;25.43;40.85
30744;BME280;17486;46.738;7.622;2022-10-16T11:35:19;95447.88;;;25.65;38.85
30744;BME280;17486;46.738;7.622;2022-10-16T11:37:49;95477.06;;;25.99;37.95
30744;BME280;17486;46.738;7.622;2022-10-16T11:40:32;95443.75;;;26.04;37.07
30744;BME280;17486;46.738;7.622;2022-10-16T11:43:12;95454.38;;;26.37;36.65
30744;BME280;17486;46.738;7.622;2022-10-16T11:45:43;95461.03;;;26.57;35.66
30744;BME280;17486;46.738;7.622;2022-10-16T11:48:41;95466.19;;;26.75;35.91
30744;BME280;17486;46.738;7.622;2022-10-16T11:55:21;95461.53;;;27.09;35.08
30744;BME280;17486;46.738;7.622;2022-10-16T11:57:19;95459.72;;;27.09;34.82
30744;BME280;17486;46.738;7.622;2022-10-16T11:59:54;95432.72;;;26.96;34.02
30744;BME280;17486;46.738;7.622;2022-10-16T12:03:22;95426.91;;;26.92;34.56
30744;BME280;17486;46.738;7.622;2022-10-16T12:08:13;95461.22;;;27.12;34.19
30744;BME280;17486;46.738;7.622;2022-10-16T12:10:41;95430.72;;;26.98;34.17
30744;BME280;17486;46.738;7.622;2022-10-16T12:13:34;95451.16;;;27.14;34.37
30744;BME280;17486;46.738;7.622;2022-10-16T12:18:38;95440.81;;;27.19;33.24
30744;BME280;17486;46.738;7.622;2022-10-16T12:21:05;95423.53;;;27.07;33.34
30744;BME280;17486;46.738;7.622;2022-10-16T12:23:36;95442.28;;;27.22;32.92
30744;BME280;17486;46.738;7.622;2022-10-16T12:26:02;95454.41;;;27.33;32.26
30744;BME280;17486;46.738;7.622;2022-10-16T12:28:32;95448.56;;;27.37;32.59
30744;BME280;17486;46.738;7.622;2022-10-16T12:31:03;95445.34;;;27.50;32.18
30744;BME280;17486;46.738;7.622;2022-10-16T12:33:35;95441.72;;;27.66;32.14
30744;BME280;17486;46.738;7.622;2022-10-16T12:36:05;95412.94;;;27.76;31.93
30744;BME280;17486;46.738;7.622;2022-10-16T12:38:45;95438.13;;;28.20;31.18
30744;BME280;17486;46.738;7.622;2022-10-16T12:41:11;95427.56;;;28.42;30.43
30744;BME280;17486;46.738;7.622;2022-10-16T12:43:42;95402.50;;;28.43;29.97
30744;BME280;17486;46.738;7.622;2022-10-16T12:48:33;95428.78;;;28.99;29.12
30744;BME280;17486;46.738;7.622;2022-10-16T12:51:19;95400.16;;;29.00;29.03
30744;BME280;17486;46.738;7.622;2022-10-16T12:54:12;95413.53;;;29.15;28.77
30744;BME280;17486;46.738;7.622;2022-10-16T13:05:02;95439.59;;;29.79;27.15
30744;BME280;17486;46.738;7.622;2022-10-16T13:10:21;95429.47;;;29.74;27.27
30744;BME280;17486;46.738;7.622;2022-10-16T13:15:31;95400.91;;;29.67;26.63
30744;BME280;17486;46.738;7.622;2022-10-16T13:18:15;95433.88;;;29.82;26.52
30744;BME280;17486;46.738;7.622;2022-10-16T13:26:46;95437.44;;;29.68;26.84
30744;BME280;17486;46.738;7.622;2022-10-16T13:29:14;95428.44;;;29.75;27.49
30744;BME280;17486;46.738;7.622;2022-10-16T13:31:40;95422.63;;;29.72;27.24
30744;BME280;17486;46.738;7.622;2022-10-16T13:34:13;95423.97;;;29.83;27.29
30744;BME280;17486;46.738;7.622;2022-10-16T13:36:50;95399.78;;;29.76;27.33
30744;BME280;17486;46.738;7.622;2022-10-16T13:39:27;95424.19;;;30.03;27.57
30744;BME280;17486;46.738;7.622;2022-10-16T13:42:06;95437.16;;;30.27;27.65
30744;BME280;17486;46.738;7.622;2022-10-16T13:44:50;95405.63;;;30.36;27.13
30744;BME280;17486;46.738;7.622;2022-10-16T13:47:25;95402.69;;;30.53;27.24
30744;BME280;17486;46.738;7.622;2022-10-16T13:50:09;95434.06;;;30.87;26.94
30744;BME280;17486;46.738;7.622;2022-10-16T13:52:36;95426.53;;;31.04;26.73
30744;BME280;17486;46.738;7.622;2022-10-16T13:55:04;95430.69;;;31.14;26.81
30744;BME280;17486;46.738;7.622;2022-10-16T13:57:30;95417.69;;;31.11;26.70
30744;BME280;17486;46.738;7.622;2022-10-16T13:59:55;95427.03;;;31.21;26.54
30744;BME280;17486;46.738;7.622;2022-10-16T14:02:32;95400.25;;;31.00;26.83
30744;BME280;17486;46.738;7.622;2022-10-16T14:05:01;95407.25;;;31.01;26.63
30744;BME280;17486;46.738;7.622;2022-10-16T14:07:29;95404.16;;;30.97;26.91
30744;BME280;17486;46.738;7.622;2022-10-16T14:10:02;95425.94;;;31.09;26.75
30744;BME280;17486;46.738;7.622;2022-10-16T14:12:28;95398.38;;;31.00;27.09
30744;BME280;17486;46.738;7.622;2022-10-16T14:14:55;95401.72;;;31.02;26.83
30744;BME280;17486;46.738;7.622;2022-10-16T14:17:28;95423.72;;;31.19;26.94
30744;BME280;17486;46.738;7.622;2022-10-16T14:19:57;95398.47;;;31.14;26.85
30744;BME280;17486;46.738;7.622;2022-10-16T14:24:49;95427.72;;;31.50;26.84
30744;BME280;17486;46.738;7.622;2022-10-16T14:27:24;95431.09;;;31.66;27.29
30744;BME280;17486;46.738;7.622;2022-10-16T14:30:22;95418.09;;;31.76;27.72
30744;BME280;17486;46.738;7.622;2022-10-16T14:33:02;95430.75;;;31.89;28.13
30744;BME280;17486;46.738;7.622;2022-10-16T14:35:46;95433.00;;;31.92;28.22
30744;BME280;17486;46.738;7.622;2022-10-16T14:38:18;95391.00;;;31.78;27.79
30744;BME280;17486;46.738;7.622;2022-10-16T14:40:47;95426.41;;;32.01;27.25
30744;BME280;17486;46.738;7.622;2022-10-16T14:43:22;95434.47;;;31.88;27.60